createdAt,value
2017-05-24T00:01:18.314Z,0
2017-05-24T00:02:18.939Z,0
2017-05-24T00:03:19.529Z,0
2017-05-24T00:04:20.137Z,0
2017-05-24T00:05:20.758Z,0
2017-05-24T00:06:21.371Z,0
2017-05-24T00:07:21.976Z,0
2017-05-24T00:08:22.589Z,0
2017-05-24T00:09:23.203Z,0
2017-05-24T00:10:23.812Z,0
2017-05-24T00:11:24.412Z,0
2017-05-24T00:12:25.023Z,0
2017-05-24T00:13:25.624Z,0
2017-05-24T00:14:26.224Z,0
2017-05-24T00:15:26.834Z,0
2017-05-24T00:16:27.495Z,0
2017-05-24T00:17:28.098Z,0
2017-05-24T00:18:28.698Z,0
2017-05-24T00:19:29.310Z,0
2017-05-24T00:20:29.910Z,0
2017-05-24T00:21:30.509Z,0
2017-05-24T00:22:31.118Z,0
2017-05-24T00:23:31.715Z,0
2017-05-24T00:24:32.319Z,0
2017-05-24T00:25:32.925Z,0
2017-05-24T00:26:33.527Z,0
2017-05-24T00:27:34.142Z,0
2017-05-24T00:28:34.741Z,0
2017-05-24T00:29:35.354Z,0
2017-05-24T00:30:35.970Z,0
2017-05-24T00:31:36.581Z,0
2017-05-24T00:32:37.190Z,0
2017-05-24T00:33:37.798Z,0
2017-05-24T00:34:38.406Z,0
2017-05-24T00:35:39.013Z,0
2017-05-24T00:36:39.619Z,0
2017-05-24T00:37:40.233Z,0
2017-05-24T00:38:40.831Z,0
2017-05-24T00:39:41.439Z,0
2017-05-24T00:40:42.050Z,0
2017-05-24T00:41:42.651Z,0
2017-05-24T00:42:43.263Z,0
2017-05-24T00:43:43.873Z,0
2017-05-24T00:44:44.479Z,0
2017-05-24T00:45:45.079Z,0
2017-05-24T00:46:45.686Z,0
2017-05-24T00:47:46.293Z,0
2017-05-24T00:48:46.901Z,0
2017-05-24T00:49:47.503Z,0
2017-05-24T00:50:48.096Z,0
2017-05-24T00:51:48.705Z,0
2017-05-24T00:52:49.310Z,0
2017-05-24T00:53:49.914Z,0
2017-05-24T00:54:50.523Z,0
2017-05-24T00:55:51.133Z,0
2017-05-24T00:56:51.750Z,0
2017-05-24T00:57:52.364Z,0
2017-05-24T00:58:52.965Z,0
2017-05-24T00:59:53.580Z,0
2017-05-24T01:00:54.194Z,0
2017-05-24T01:01:54.790Z,0
2017-05-24T01:02:55.428Z,0
2017-05-24T01:03:56.007Z,0
2017-05-24T01:04:56.612Z,0
2017-05-24T01:05:57.212Z,0
2017-05-24T01:06:57.823Z,0
2017-05-24T01:07:58.439Z,0
2017-05-24T01:08:59.041Z,0
2017-05-24T01:09:59.650Z,0
2017-05-24T01:11:00.249Z,0
2017-05-24T01:12:00.859Z,0
2017-05-24T01:13:01.468Z,0
2017-05-24T01:14:02.081Z,0
2017-05-24T01:15:02.678Z,0
2017-05-24T01:16:03.285Z,0
2017-05-24T01:17:03.899Z,0
2017-05-24T01:18:04.509Z,0
2017-05-24T01:19:05.123Z,0
2017-05-24T01:20:05.722Z,0
2017-05-24T01:21:06.319Z,0
2017-05-24T01:22:06.928Z,0
2017-05-24T01:23:07.539Z,0
2017-05-24T01:24:08.141Z,0
2017-05-24T01:25:08.737Z,0
2017-05-24T01:26:09.351Z,0
2017-05-24T01:27:09.965Z,0
2017-05-24T01:28:10.578Z,0
2017-05-24T01:29:11.177Z,0
2017-05-24T01:30:11.841Z,0
2017-05-24T01:31:12.384Z,0
2017-05-24T01:32:12.982Z,0
2017-05-24T01:33:13.584Z,0
2017-05-24T01:34:14.198Z,0
2017-05-24T01:35:14.812Z,0
2017-05-24T01:36:15.428Z,0
2017-05-24T01:37:16.033Z,0
2017-05-24T01:38:16.641Z,0
2017-05-24T01:39:17.255Z,0
2017-05-24T01:40:17.865Z,0
2017-05-24T01:41:18.476Z,0
2017-05-24T01:42:19.088Z,0
2017-05-24T01:43:19.758Z,0
2017-05-24T01:44:20.370Z,0
2017-05-24T01:45:20.983Z,0
2017-05-24T01:46:21.592Z,0
2017-05-24T01:47:22.199Z,0
2017-05-24T01:48:22.807Z,0
2017-05-24T01:49:23.420Z,0
2017-05-24T01:50:24.032Z,0
2017-05-24T01:51:24.629Z,0
2017-05-24T01:52:25.241Z,0
2017-05-24T01:53:25.849Z,0
2017-05-24T01:54:26.463Z,0
2017-05-24T01:55:27.076Z,0
2017-05-24T01:56:27.673Z,0
2017-05-24T01:57:28.287Z,0
2017-05-24T01:58:28.890Z,0
2017-05-24T01:59:29.497Z,0
2017-05-24T02:00:30.094Z,0
2017-05-24T02:01:30.705Z,0
2017-05-24T02:02:31.303Z,0
2017-05-24T02:03:31.912Z,0
2017-05-24T02:04:32.519Z,0
2017-05-24T02:05:33.129Z,0
2017-05-24T02:06:33.737Z,0
2017-05-24T02:07:34.348Z,0
2017-05-24T02:08:34.961Z,0
2017-05-24T02:09:35.573Z,0
2017-05-24T02:10:36.170Z,0
2017-05-24T02:11:36.777Z,0
2017-05-24T02:12:37.388Z,0
2017-05-24T02:13:38.000Z,0
2017-05-24T02:14:38.613Z,0
2017-05-24T02:15:39.221Z,0
2017-05-24T02:16:39.831Z,0
2017-05-24T02:17:40.440Z,0
2017-05-24T02:18:41.054Z,0
2017-05-24T02:19:41.666Z,0
2017-05-24T02:20:42.282Z,0
2017-05-24T02:21:42.879Z,0
2017-05-24T02:22:43.475Z,0
2017-05-24T02:23:44.071Z,0
2017-05-24T02:24:44.672Z,0
2017-05-24T02:25:45.283Z,0
2017-05-24T02:26:45.878Z,0
2017-05-24T02:27:46.476Z,0
2017-05-24T02:28:47.086Z,0
2017-05-24T02:29:47.693Z,0
2017-05-24T02:30:48.303Z,0
2017-05-24T02:31:48.916Z,0
2017-05-24T02:32:49.522Z,0
2017-05-24T02:33:50.129Z,0
2017-05-24T02:34:50.729Z,0
2017-05-24T02:35:51.342Z,0
2017-05-24T02:36:51.987Z,0
2017-05-24T02:37:52.585Z,0
2017-05-24T02:38:53.192Z,0
2017-05-24T02:39:53.795Z,0
2017-05-24T02:40:54.407Z,0
2017-05-24T02:41:55.022Z,0
2017-05-24T02:42:55.634Z,0
2017-05-24T02:43:56.229Z,0
2017-05-24T02:44:56.828Z,0
2017-05-24T02:45:57.435Z,0
2017-05-24T02:46:58.031Z,0
2017-05-24T02:47:58.631Z,0
2017-05-24T02:48:59.244Z,0
2017-05-24T02:49:59.842Z,0
2017-05-24T02:51:00.444Z,0
2017-05-24T02:52:01.059Z,0
2017-05-24T02:53:01.658Z,0
2017-05-24T02:54:02.259Z,0
2017-05-24T02:55:02.866Z,0
2017-05-24T02:56:03.466Z,0
2017-05-24T02:57:04.074Z,0
2017-05-24T02:58:04.682Z,0
2017-05-24T02:59:05.292Z,0
2017-05-24T03:00:05.907Z,0
2017-05-24T03:01:06.519Z,0
2017-05-24T03:02:07.130Z,0
2017-05-24T03:03:07.745Z,0
2017-05-24T03:04:08.355Z,0
2017-05-24T03:05:08.955Z,0
2017-05-24T03:06:09.564Z,0
2017-05-24T03:07:10.232Z,0
2017-05-24T03:08:10.851Z,0
2017-05-24T03:09:11.453Z,0
2017-05-24T03:10:12.065Z,0
2017-05-24T03:11:12.673Z,0
2017-05-24T03:12:13.275Z,0
2017-05-24T03:13:13.887Z,0
2017-05-24T03:14:14.498Z,0
2017-05-24T03:15:15.114Z,0
2017-05-24T03:16:15.728Z,0
2017-05-24T03:17:16.340Z,0
2017-05-24T03:18:16.939Z,0
2017-05-24T03:19:17.540Z,0
2017-05-24T03:20:18.140Z,0
2017-05-24T03:21:18.737Z,0
2017-05-24T03:22:19.337Z,0
2017-05-24T03:23:19.954Z,0
2017-05-24T03:24:20.561Z,0
2017-05-24T03:25:21.163Z,0
2017-05-24T03:26:21.763Z,0
2017-05-24T03:27:22.364Z,0
2017-05-24T03:28:22.972Z,5
2017-05-24T03:29:23.586Z,5
2017-05-24T03:30:24.185Z,5
2017-05-24T03:31:24.784Z,5
2017-05-24T03:32:25.398Z,10
2017-05-24T03:33:26.016Z,10
2017-05-24T03:34:26.625Z,10
2017-05-24T03:35:27.240Z,10
2017-05-24T03:36:27.850Z,10
2017-05-24T03:37:28.458Z,15
2017-05-24T03:38:29.061Z,15
2017-05-24T03:39:29.673Z,15
2017-05-24T03:40:30.295Z,20
2017-05-24T03:41:30.894Z,20
2017-05-24T03:42:31.509Z,20
2017-05-24T03:43:32.124Z,20
2017-05-24T03:44:32.723Z,25
2017-05-24T03:45:33.391Z,25
2017-05-24T03:46:34.003Z,25
2017-05-24T03:47:34.608Z,25
2017-05-24T03:48:35.227Z,30
2017-05-24T03:49:35.841Z,30
2017-05-24T03:50:36.502Z,35
2017-05-24T03:51:37.040Z,35
2017-05-24T03:52:37.641Z,35
2017-05-24T03:53:38.257Z,40
2017-05-24T03:54:38.864Z,40
2017-05-24T03:55:39.482Z,40
2017-05-24T03:56:40.095Z,40
2017-05-24T03:57:40.696Z,45
2017-05-24T03:58:41.310Z,45
2017-05-24T03:59:41.924Z,50
2017-05-24T04:00:42.526Z,50
2017-05-24T04:01:43.142Z,50
2017-05-24T04:02:43.759Z,55
2017-05-24T04:03:44.374Z,55
2017-05-24T04:04:44.990Z,55
2017-05-24T04:05:45.594Z,60
2017-05-24T04:06:46.197Z,60
2017-05-24T04:07:46.817Z,60
2017-05-24T04:08:47.434Z,60
2017-05-24T04:09:48.048Z,60
2017-05-24T04:10:48.661Z,65
2017-05-24T04:11:49.262Z,65
2017-05-24T04:12:49.867Z,70
2017-05-24T04:13:50.482Z,75
2017-05-24T04:14:51.084Z,80
2017-05-24T04:15:51.700Z,85
2017-05-24T04:16:52.320Z,85
2017-05-24T04:17:52.935Z,90
2017-05-24T04:18:53.545Z,95
2017-05-24T04:19:54.161Z,95
2017-05-24T04:20:54.776Z,100
2017-05-24T04:21:55.389Z,105
2017-05-24T04:22:56.004Z,105
2017-05-24T04:23:56.611Z,110
2017-05-24T04:24:57.215Z,120
2017-05-24T04:25:57.827Z,130
2017-05-24T04:26:58.434Z,135
2017-05-24T04:27:59.039Z,140
2017-05-24T04:28:59.659Z,145
2017-05-24T04:30:00.277Z,150
2017-05-24T04:31:00.910Z,155
2017-05-24T04:32:01.528Z,160
2017-05-24T04:33:02.128Z,165
2017-05-24T04:34:02.742Z,170
2017-05-24T04:35:03.347Z,175
2017-05-24T04:36:03.952Z,175
2017-05-24T04:37:04.573Z,175
2017-05-24T04:38:05.174Z,170
2017-05-24T04:39:05.790Z,170
2017-05-24T04:40:06.400Z,180
2017-05-24T04:41:07.007Z,175
2017-05-24T04:42:07.620Z,180
2017-05-24T04:43:08.232Z,185
2017-05-24T04:44:08.840Z,195
2017-05-24T04:45:09.449Z,200
2017-05-24T04:46:10.050Z,210
2017-05-24T04:47:10.657Z,220
2017-05-24T04:48:11.277Z,225
2017-05-24T04:49:11.885Z,235
2017-05-24T04:50:12.495Z,240
2017-05-24T04:51:13.096Z,240
2017-05-24T04:52:13.716Z,245
2017-05-24T04:53:14.338Z,245
2017-05-24T04:54:14.957Z,245
2017-05-24T04:55:15.568Z,250
2017-05-24T04:56:16.188Z,265
2017-05-24T04:57:16.810Z,290
2017-05-24T04:58:17.430Z,275
2017-05-24T04:59:18.039Z,290
2017-05-24T05:00:18.657Z,320
2017-05-24T05:01:19.269Z,350
2017-05-24T05:02:19.889Z,360
2017-05-24T05:03:20.563Z,365
2017-05-24T05:04:21.193Z,370
2017-05-24T05:05:21.819Z,365
2017-05-24T05:06:22.441Z,365
2017-05-24T05:07:23.055Z,360
2017-05-24T05:08:23.680Z,370
2017-05-24T05:09:24.299Z,360
2017-05-24T05:10:24.920Z,330
2017-05-24T05:11:25.543Z,325
2017-05-24T05:12:26.162Z,330
2017-05-24T05:13:26.783Z,290
2017-05-24T05:14:27.407Z,285
2017-05-24T05:15:28.034Z,320
2017-05-24T05:16:28.664Z,355
2017-05-24T05:17:29.279Z,375
2017-05-24T05:18:29.892Z,385
2017-05-24T05:19:30.513Z,385
2017-05-24T05:20:31.136Z,375
2017-05-24T05:21:31.747Z,365
2017-05-24T05:22:32.365Z,370
2017-05-24T05:23:32.995Z,375
2017-05-24T05:24:33.623Z,380
2017-05-24T05:25:34.247Z,375
2017-05-24T05:26:34.868Z,350
2017-05-24T05:27:35.492Z,315
2017-05-24T05:28:36.118Z,325
2017-05-24T05:29:36.730Z,370
2017-05-24T05:30:37.358Z,385
2017-05-24T05:31:37.987Z,405
2017-05-24T05:32:38.611Z,385
2017-05-24T05:33:39.233Z,400
2017-05-24T05:34:39.854Z,400
2017-05-24T05:35:40.476Z,330
2017-05-24T05:36:41.105Z,335
2017-05-24T05:37:41.724Z,330
2017-05-24T05:38:42.342Z,460
2017-05-24T05:39:42.970Z,320
2017-05-24T05:40:43.580Z,340
2017-05-24T05:41:44.203Z,415
2017-05-24T05:42:44.822Z,340
2017-05-24T05:43:45.449Z,415
2017-05-24T05:44:46.073Z,480
2017-05-24T05:45:46.698Z,535
2017-05-24T05:46:47.309Z,350
2017-05-24T05:47:47.926Z,340
2017-05-24T05:48:48.548Z,365
2017-05-24T05:49:49.169Z,505
2017-05-24T05:50:49.791Z,565
2017-05-24T05:51:50.413Z,570
2017-05-24T05:52:51.025Z,495
2017-05-24T05:53:51.657Z,535
2017-05-24T05:54:52.274Z,625
2017-05-24T05:55:52.895Z,625
2017-05-24T05:56:53.525Z,630
2017-05-24T05:57:54.141Z,615
2017-05-24T05:58:54.770Z,575
2017-05-24T05:59:55.395Z,600
2017-05-24T06:00:56.079Z,560
2017-05-24T06:01:56.710Z,410
2017-05-24T06:02:57.344Z,385
2017-05-24T06:03:57.971Z,370
2017-05-24T06:04:58.599Z,460
2017-05-24T06:05:59.211Z,605
2017-05-24T06:06:59.826Z,420
2017-05-24T06:08:00.448Z,380
2017-05-24T06:09:01.062Z,530
2017-05-24T06:10:01.730Z,380
2017-05-24T06:11:02.357Z,420
2017-05-24T06:12:02.974Z,440
2017-05-24T06:13:03.600Z,490
2017-05-24T06:14:04.233Z,630
2017-05-24T06:15:04.863Z,525
2017-05-24T06:16:05.477Z,530
2017-05-24T06:17:06.114Z,735
2017-05-24T06:18:06.739Z,875
2017-05-24T06:19:07.369Z,925
2017-05-24T06:20:08.000Z,840
2017-05-24T06:21:08.631Z,630
2017-05-24T06:22:09.260Z,670
2017-05-24T06:23:09.873Z,670
2017-05-24T06:24:10.493Z,825
2017-05-24T06:25:11.106Z,1015
2017-05-24T06:26:11.734Z,625
2017-05-24T06:27:12.359Z,610
2017-05-24T06:28:12.974Z,545
2017-05-24T06:29:13.602Z,650
2017-05-24T06:30:14.225Z,490
2017-05-24T06:31:14.853Z,450
2017-05-24T06:32:15.478Z,430
2017-05-24T06:33:16.102Z,425
2017-05-24T06:34:16.729Z,440
2017-05-24T06:35:17.354Z,450
2017-05-24T06:36:17.979Z,510
2017-05-24T06:37:18.602Z,875
2017-05-24T06:38:19.213Z,570
2017-05-24T06:39:19.827Z,520
2017-05-24T06:40:20.452Z,515
2017-05-24T06:41:21.079Z,500
2017-05-24T06:42:21.701Z,500
2017-05-24T06:43:22.316Z,500
2017-05-24T06:44:22.931Z,485
2017-05-24T06:45:23.554Z,480
2017-05-24T06:46:24.168Z,490
2017-05-24T06:47:24.791Z,500
2017-05-24T06:48:25.408Z,515
2017-05-24T06:49:26.027Z,510
2017-05-24T06:50:26.692Z,505
2017-05-24T06:51:27.318Z,600
2017-05-24T06:52:27.953Z,505
2017-05-24T06:53:28.559Z,565
2017-05-24T06:54:29.180Z,620
2017-05-24T06:55:29.801Z,595
2017-05-24T06:56:30.422Z,595
2017-05-24T06:57:31.031Z,585
2017-05-24T06:58:31.647Z,580
2017-05-24T06:59:32.320Z,725
2017-05-24T07:00:32.903Z,1330
2017-05-24T07:01:33.530Z,1350
2017-05-24T07:02:34.152Z,815
2017-05-24T07:03:34.780Z,600
2017-05-24T07:04:35.409Z,1380
2017-05-24T07:05:36.034Z,830
2017-05-24T07:06:36.647Z,1345
2017-05-24T07:07:37.271Z,1350
2017-05-24T07:08:37.901Z,1325
2017-05-24T07:09:38.516Z,945
2017-05-24T07:10:39.151Z,780
2017-05-24T07:11:39.777Z,835
2017-05-24T07:12:40.406Z,1330
2017-05-24T07:13:41.024Z,1240
2017-05-24T07:14:41.656Z,1495
2017-05-24T07:15:42.272Z,1290
2017-05-24T07:16:42.906Z,1125
2017-05-24T07:17:43.539Z,890
2017-05-24T07:18:44.171Z,790
2017-05-24T07:19:44.810Z,730
2017-05-24T07:20:45.439Z,685
2017-05-24T07:21:46.063Z,665
2017-05-24T07:22:46.689Z,655
2017-05-24T07:23:47.305Z,690
2017-05-24T07:24:47.929Z,670
2017-05-24T07:25:48.543Z,685
2017-05-24T07:26:49.172Z,690
2017-05-24T07:27:49.846Z,675
2017-05-24T07:28:50.472Z,705
2017-05-24T07:29:51.093Z,635
2017-05-24T07:30:51.717Z,625
2017-05-24T07:31:52.347Z,625
2017-05-24T07:32:52.973Z,625
2017-05-24T07:33:53.636Z,635
2017-05-24T07:34:54.227Z,645
2017-05-24T07:35:54.857Z,660
2017-05-24T07:36:55.478Z,670
2017-05-24T07:37:56.098Z,675
2017-05-24T07:38:56.721Z,685
2017-05-24T07:39:57.340Z,695
2017-05-24T07:40:57.978Z,695
2017-05-24T07:41:58.600Z,685
2017-05-24T07:42:59.209Z,690
2017-05-24T07:43:59.833Z,675
2017-05-24T08:52:30.424Z,0
2017-05-24T08:53:31.043Z,0
2017-05-24T08:54:31.659Z,0
2017-05-24T08:55:32.281Z,0
2017-05-24T08:56:32.900Z,0
2017-05-24T08:57:33.515Z,0
2017-05-24T08:58:34.143Z,0
2017-05-24T08:59:34.769Z,0
2017-05-24T09:00:35.394Z,0
2017-05-24T09:01:36.021Z,0
2017-05-24T09:02:36.636Z,0
2017-05-24T09:03:37.264Z,0
2017-05-24T09:04:37.898Z,0
2017-05-24T09:05:38.505Z,0
2017-05-24T09:06:39.137Z,0
2017-05-24T09:07:39.764Z,0
2017-05-24T09:08:40.394Z,0
2017-05-24T09:09:41.024Z,0
2017-05-24T09:10:41.643Z,0
2017-05-24T09:11:42.261Z,0
2017-05-24T09:12:42.882Z,0
2017-05-24T09:13:43.511Z,0
2017-05-24T09:14:44.138Z,0
2017-05-24T09:15:44.758Z,0
2017-05-24T09:16:45.435Z,0
2017-05-24T09:17:46.094Z,0
2017-05-24T09:18:46.682Z,0
2017-05-24T09:19:47.300Z,0
2017-05-24T09:20:47.932Z,0
2017-05-24T09:21:48.554Z,0
2017-05-24T09:22:49.170Z,0
2017-05-24T09:23:49.795Z,0
2017-05-24T09:24:50.429Z,0
2017-05-24T09:25:51.046Z,0
2017-05-24T09:26:51.679Z,0
2017-05-24T09:27:52.296Z,0
2017-05-24T09:28:52.929Z,0
2017-05-24T09:29:53.562Z,0
2017-05-24T09:30:54.195Z,0
2017-05-24T09:31:54.813Z,0
2017-05-24T09:32:55.440Z,0
2017-05-24T09:33:56.080Z,0
2017-05-24T09:34:56.707Z,0
2017-05-24T09:35:57.325Z,0
2017-05-24T09:36:57.952Z,0
2017-05-24T09:37:58.569Z,0
2017-05-24T09:38:59.197Z,0
2017-05-24T09:39:59.827Z,0
2017-05-24T09:41:00.459Z,0
2017-05-24T09:42:01.092Z,0
2017-05-24T09:43:01.721Z,0
2017-05-24T09:44:02.345Z,0
2017-05-24T09:45:02.963Z,0
2017-05-24T09:46:03.594Z,0
2017-05-24T09:47:04.261Z,0
2017-05-24T09:48:04.896Z,0
2017-05-24T09:49:05.517Z,0
2017-05-24T09:50:06.147Z,0
2017-05-24T09:51:06.766Z,0
2017-05-24T09:52:07.398Z,0
2017-05-24T09:53:08.031Z,0
2017-05-24T09:54:08.661Z,0
2017-05-24T09:55:09.285Z,0
2017-05-24T09:56:09.909Z,0
2017-05-24T09:57:10.532Z,0
2017-05-24T09:58:11.155Z,0
2017-05-24T09:59:11.783Z,0
2017-05-24T10:00:12.397Z,0
2017-05-24T10:01:13.023Z,0
2017-05-24T10:02:13.638Z,0
2017-05-24T10:03:14.268Z,0
2017-05-24T10:04:14.896Z,0
2017-05-24T10:05:15.570Z,0
2017-05-24T10:06:16.184Z,0
2017-05-24T10:07:16.809Z,0
2017-05-24T10:08:17.443Z,0
2017-05-24T10:09:18.075Z,0
2017-05-24T10:10:18.753Z,0
2017-05-24T10:11:19.379Z,0
2017-05-24T10:12:19.993Z,0
2017-05-24T10:13:20.619Z,0
2017-05-24T10:14:21.233Z,0
2017-05-24T10:15:21.855Z,0
2017-05-24T10:16:22.469Z,0
2017-05-24T10:17:23.087Z,0
2017-05-24T10:18:23.715Z,0
2017-05-24T10:19:24.345Z,0
2017-05-24T10:20:24.955Z,0
2017-05-24T10:21:25.582Z,0
2017-05-24T10:22:26.205Z,0
2017-05-24T10:23:26.836Z,0
2017-05-24T10:24:27.462Z,0
2017-05-24T10:25:28.087Z,0
2017-05-24T10:26:28.715Z,0
2017-05-24T10:27:29.351Z,0
2017-05-24T10:28:29.959Z,0
2017-05-24T10:29:30.586Z,0
2017-05-24T10:30:31.219Z,0
2017-05-24T10:31:31.846Z,0
2017-05-24T10:32:32.460Z,0
2017-05-24T10:33:33.079Z,0
2017-05-24T10:34:33.705Z,0
2017-05-24T10:35:34.330Z,0
2017-05-24T10:36:34.946Z,0
2017-05-24T10:37:35.569Z,0
2017-05-24T10:38:36.191Z,0
2017-05-24T10:39:36.807Z,0
2017-05-24T10:40:37.441Z,0
2017-05-24T10:41:38.073Z,0
2017-05-24T10:42:38.703Z,0
2017-05-24T10:43:39.331Z,0
2017-05-24T10:44:39.958Z,0
2017-05-24T10:45:40.587Z,0
2017-05-24T10:46:41.214Z,0
2017-05-24T10:47:41.842Z,0
2017-05-24T10:48:42.465Z,0
2017-05-24T10:49:43.091Z,0
2017-05-24T10:50:43.708Z,0
2017-05-24T10:51:44.336Z,0
2017-05-24T10:52:44.967Z,0
2017-05-24T10:53:45.594Z,0
2017-05-24T10:54:46.215Z,0
2017-05-24T10:55:46.837Z,0
2017-05-24T10:56:47.452Z,0
2017-05-24T10:57:48.062Z,0
2017-05-24T10:58:48.686Z,0
2017-05-24T10:59:49.314Z,0
2017-05-24T11:00:49.943Z,0
2017-05-24T11:01:50.575Z,0
2017-05-24T11:02:51.186Z,0
2017-05-24T11:03:51.799Z,0
2017-05-24T11:04:52.423Z,0
2017-05-24T11:05:53.271Z,0
2017-05-24T11:06:53.887Z,0
2017-05-24T11:07:54.510Z,0
2017-05-24T11:08:55.139Z,0
2017-05-24T11:09:55.766Z,0
2017-05-24T11:10:56.374Z,0
2017-05-24T11:11:57.001Z,0
2017-05-24T11:12:57.620Z,0
2017-05-24T11:13:58.247Z,0
2017-05-24T11:14:58.877Z,0
2017-05-24T11:15:59.509Z,0
2017-05-24T11:17:00.139Z,0
2017-05-24T11:18:00.763Z,0
2017-05-24T11:19:01.390Z,0
2017-05-24T11:20:02.019Z,0
2017-05-24T11:21:02.645Z,0
2017-05-24T11:22:03.258Z,0
2017-05-24T11:23:03.869Z,0
2017-05-24T11:24:04.481Z,0
2017-05-24T11:25:05.096Z,0
2017-05-24T11:26:05.716Z,0
2017-05-24T11:27:06.398Z,0
2017-05-24T11:28:07.021Z,0
2017-05-24T11:29:07.635Z,0
2017-05-24T11:30:08.248Z,0
2017-05-24T11:31:08.870Z,0
2017-05-24T11:32:09.482Z,0
2017-05-24T11:33:10.107Z,0
2017-05-24T11:34:10.738Z,0
2017-05-24T11:35:11.354Z,0
2017-05-24T11:36:11.968Z,0
2017-05-24T11:37:12.593Z,0
2017-05-24T11:38:13.205Z,0
2017-05-24T11:39:13.837Z,0
2017-05-24T11:40:14.463Z,0
2017-05-24T11:41:15.092Z,0
2017-05-24T11:42:15.724Z,0
2017-05-24T11:43:16.342Z,0
2017-05-24T11:44:16.964Z,0
2017-05-24T11:45:17.596Z,0
2017-05-24T11:46:18.228Z,0
2017-05-24T11:47:18.859Z,0
2017-05-24T11:48:19.485Z,0
2017-05-24T11:49:20.096Z,0
2017-05-24T11:50:20.837Z,0
2017-05-24T11:51:21.461Z,0
2017-05-24T11:52:22.089Z,0
2017-05-24T11:53:22.722Z,0
2017-05-24T11:54:23.353Z,0
2017-05-24T11:55:23.961Z,0
2017-05-24T11:56:24.590Z,0
2017-05-24T11:57:25.222Z,0
2017-05-24T11:58:25.844Z,0
2017-05-24T11:59:26.454Z,0
2017-05-24T12:00:27.066Z,0
2017-05-24T12:01:27.692Z,0
2017-05-24T12:02:28.309Z,0
2017-05-24T12:03:28.930Z,0
2017-05-24T12:04:29.552Z,0
2017-05-24T12:05:30.181Z,0
2017-05-24T12:06:30.813Z,0
2017-05-24T12:07:31.431Z,0
2017-05-24T12:08:32.267Z,0
2017-05-24T12:09:32.896Z,0
2017-05-24T12:10:33.505Z,0
2017-05-24T12:11:34.128Z,0
2017-05-24T12:12:34.753Z,0
2017-05-24T12:13:35.373Z,0
2017-05-24T12:14:36.407Z,0
2017-05-24T12:15:37.027Z,0
2017-05-24T12:16:37.654Z,0
2017-05-24T12:17:38.275Z,0
2017-05-24T12:18:38.891Z,0
2017-05-24T12:19:39.518Z,0
2017-05-24T12:20:40.149Z,0
2017-05-24T12:21:40.777Z,0
2017-05-24T12:22:41.397Z,0
2017-05-24T12:23:42.023Z,0
2017-05-24T12:24:42.653Z,0
2017-05-24T12:25:43.269Z,0
2017-05-24T12:26:43.882Z,0
2017-05-24T12:27:44.504Z,0
2017-05-24T12:28:45.117Z,0
2017-05-24T12:29:45.731Z,0
2017-05-24T12:30:46.353Z,0
2017-05-24T12:31:46.987Z,0
2017-05-24T12:32:47.612Z,0
2017-05-24T12:33:48.239Z,0
2017-05-24T12:34:48.847Z,0
2017-05-24T12:35:49.469Z,0
2017-05-24T12:36:50.097Z,0
2017-05-24T12:37:50.723Z,0
2017-05-24T12:38:51.354Z,0
2017-05-24T12:39:51.977Z,0
2017-05-24T12:40:52.594Z,0
2017-05-24T12:41:53.218Z,0
2017-05-24T12:42:53.847Z,0
2017-05-24T12:43:54.467Z,0
2017-05-24T12:44:55.085Z,0
2017-05-24T12:45:55.710Z,0
2017-05-24T12:46:56.337Z,0
2017-05-24T12:47:56.965Z,0
2017-05-24T12:48:57.595Z,0
2017-05-24T12:49:58.226Z,0
2017-05-24T12:50:58.853Z,0
2017-05-24T12:51:59.485Z,0
2017-05-24T12:53:01.092Z,0
2017-05-24T12:54:01.703Z,0
2017-05-24T12:55:02.321Z,0
2017-05-24T12:56:02.939Z,0
2017-05-24T12:57:03.561Z,0
2017-05-24T12:58:04.189Z,0
2017-05-24T12:59:04.809Z,0
2017-05-24T13:00:05.432Z,0
2017-05-24T13:01:06.056Z,0
2017-05-24T13:02:06.680Z,0
2017-05-24T13:03:07.312Z,0
2017-05-24T13:04:07.944Z,0
2017-05-24T13:05:08.570Z,0
2017-05-24T13:06:09.186Z,0
2017-05-24T13:07:09.865Z,0
2017-05-24T13:08:10.493Z,0
2017-05-24T13:09:11.107Z,0
2017-05-24T13:10:11.738Z,0
2017-05-24T13:11:12.366Z,0
2017-05-24T13:12:13.192Z,0
2017-05-24T13:13:13.817Z,0
2017-05-24T13:14:14.451Z,0
2017-05-24T13:15:15.082Z,0
2017-05-24T13:16:15.701Z,0
2017-05-24T13:17:16.351Z,0
2017-05-24T13:18:17.006Z,0
2017-05-24T13:19:17.628Z,0
2017-05-24T13:20:18.251Z,0
2017-05-24T13:21:18.866Z,0
2017-05-24T13:22:19.478Z,0
2017-05-24T13:23:20.100Z,0
2017-05-24T13:24:20.724Z,0
2017-05-24T13:25:21.351Z,0
2017-05-24T13:26:21.984Z,0
2017-05-24T13:27:22.610Z,0
2017-05-24T13:28:23.235Z,0
2017-05-24T13:29:23.850Z,0
2017-05-24T13:30:24.466Z,0
2017-05-24T13:31:25.079Z,0
2017-05-24T13:32:25.709Z,0
2017-05-24T13:33:26.338Z,0
2017-05-24T13:34:26.962Z,0
2017-05-24T13:35:27.583Z,0
2017-05-24T13:36:28.207Z,0
2017-05-24T13:37:28.837Z,0
2017-05-24T13:38:29.461Z,0
2017-05-24T13:39:30.103Z,0
2017-05-24T13:40:30.715Z,0
2017-05-24T13:41:31.345Z,0
2017-05-24T13:42:31.967Z,0
2017-05-24T13:43:32.581Z,0
2017-05-24T13:44:33.210Z,0
2017-05-24T13:45:33.834Z,0
2017-05-24T13:46:34.453Z,0
2017-05-24T13:47:35.080Z,0
2017-05-24T13:48:35.706Z,0
2017-05-24T13:49:36.326Z,0
2017-05-24T13:50:36.944Z,0
2017-05-24T13:51:37.564Z,0
2017-05-24T13:52:38.190Z,0
2017-05-24T13:53:38.819Z,0
2017-05-24T13:54:39.432Z,0
2017-05-24T13:55:40.066Z,0
2017-05-24T13:56:40.677Z,0
2017-05-24T13:57:41.289Z,0
2017-05-24T13:58:41.916Z,0
2017-05-24T13:59:42.538Z,0
2017-05-24T14:00:43.164Z,0
2017-05-24T14:01:43.793Z,0
2017-05-24T14:02:44.417Z,0
2017-05-24T14:03:45.032Z,0
2017-05-24T14:04:45.658Z,0
2017-05-24T14:05:46.287Z,0
2017-05-24T14:06:46.901Z,0
2017-05-24T14:07:47.525Z,0
2017-05-24T14:08:48.151Z,0
2017-05-24T14:09:48.766Z,0
2017-05-24T14:10:49.395Z,0
2017-05-24T14:11:50.021Z,0
2017-05-24T14:12:50.631Z,0
2017-05-24T14:13:51.250Z,0
2017-05-24T14:14:51.876Z,0
2017-05-24T14:15:52.489Z,0
2017-05-24T14:16:53.117Z,0
2017-05-24T14:17:53.748Z,0
2017-05-24T14:18:54.375Z,0
2017-05-24T14:19:54.997Z,0
2017-05-24T14:20:55.624Z,0
2017-05-24T14:21:56.247Z,0
2017-05-24T14:22:56.860Z,0
2017-05-24T14:23:57.472Z,0
2017-05-24T14:24:58.081Z,0
2017-05-24T14:25:58.701Z,0
2017-05-24T14:26:59.327Z,0
2017-05-24T14:28:00.004Z,0
2017-05-24T14:29:00.613Z,0
2017-05-24T14:30:01.228Z,0
2017-05-24T14:31:01.840Z,0
2017-05-24T14:32:02.464Z,0
2017-05-24T14:33:03.129Z,0
2017-05-24T14:34:03.942Z,0
2017-05-24T14:35:04.566Z,0
2017-05-24T14:36:05.191Z,0
2017-05-24T14:37:05.812Z,0
2017-05-24T14:38:06.427Z,0
2017-05-24T14:39:07.054Z,0
2017-05-24T14:40:07.676Z,0
2017-05-24T14:41:08.291Z,0
2017-05-24T14:42:08.907Z,0
2017-05-24T14:43:09.529Z,0
2017-05-24T14:44:10.155Z,0
2017-05-24T14:45:10.797Z,0
2017-05-24T14:46:11.406Z,0
2017-05-24T14:47:12.029Z,0
2017-05-24T14:48:12.644Z,0
2017-05-24T14:49:13.256Z,0
2017-05-24T14:50:13.870Z,0
2017-05-24T14:51:14.486Z,0
2017-05-24T14:52:15.097Z,0
2017-05-24T14:53:15.707Z,0
2017-05-24T14:54:16.321Z,0
2017-05-24T14:55:16.940Z,0
2017-05-24T14:56:17.561Z,0
2017-05-24T14:57:18.185Z,0
2017-05-24T14:58:18.808Z,0
2017-05-24T14:59:19.436Z,0
2017-05-24T15:00:20.061Z,0
2017-05-24T15:01:20.682Z,0
2017-05-24T15:02:21.303Z,0
2017-05-24T15:03:21.928Z,0
2017-05-24T15:04:22.555Z,0
2017-05-24T15:05:23.178Z,0
2017-05-24T15:06:23.799Z,0
2017-05-24T15:07:24.432Z,0
2017-05-24T15:08:25.054Z,0
2017-05-24T15:09:25.679Z,0
2017-05-24T15:10:26.310Z,0
2017-05-24T15:11:26.932Z,0
2017-05-24T15:12:27.553Z,0
2017-05-24T15:13:28.187Z,0
2017-05-24T15:14:28.807Z,0
2017-05-24T15:15:29.430Z,0
2017-05-24T15:16:30.059Z,0
2017-05-24T15:17:30.679Z,0
2017-05-24T15:18:31.291Z,0
2017-05-24T15:19:31.905Z,0
2017-05-24T15:20:32.526Z,0
2017-05-24T15:21:33.146Z,0
2017-05-24T15:22:33.765Z,0
2017-05-24T15:23:34.379Z,0
2017-05-24T15:24:35.005Z,0
2017-05-24T15:25:35.625Z,0
2017-05-24T15:26:36.261Z,0
2017-05-24T15:27:36.877Z,0
2017-05-24T15:28:37.503Z,0
2017-05-24T15:29:38.119Z,0
2017-05-24T15:30:38.740Z,0
2017-05-24T15:31:39.364Z,0
2017-05-24T15:32:39.981Z,0
2017-05-24T15:33:40.604Z,0
2017-05-24T15:34:41.231Z,0
2017-05-24T15:35:41.858Z,0
2017-05-24T15:36:42.471Z,0
2017-05-24T15:37:43.079Z,0
2017-05-24T15:38:43.690Z,0
2017-05-24T15:39:44.303Z,0
2017-05-24T15:40:44.922Z,0
2017-05-24T15:41:45.546Z,0
2017-05-24T15:42:46.172Z,0
2017-05-24T15:43:46.804Z,0
2017-05-24T15:44:47.417Z,0
2017-05-24T15:45:48.029Z,0
2017-05-24T15:46:48.637Z,0
2017-05-24T15:47:49.260Z,0